createdAt,value
2022-10-14T00:01:41.280Z,15.90
2022-10-14T00:04:10.241Z,15.80
2022-10-14T00:06:40.758Z,15.80
2022-10-14T00:09:12.093Z,15.80
2022-10-14T00:11:41.253Z,15.70
2022-10-14T00:14:15.151Z,15.70
2022-10-14T00:16:46.828Z,15.70
2022-10-14T00:19:16.832Z,15.70
2022-10-14T00:21:47.857Z,15.70
2022-10-14T00:24:18.783Z,15.70
2022-10-14T00:26:47.847Z,15.70
2022-10-14T00:29:19.312Z,15.70
2022-10-14T00:31:51.640Z,15.80
2022-10-14T00:34:21.357Z,15.80
2022-10-14T00:36:51.703Z,15.80
2022-10-14T00:39:21.153Z,15.80
2022-10-14T00:41:50.236Z,15.80
2022-10-14T00:45:06.500Z,15.80
2022-10-14T00:47:37.705Z,15.80
2022-10-14T00:50:13.592Z,15.80
2022-10-14T00:52:44.586Z,15.80
2022-10-14T00:55:18.161Z,15.80
2022-10-14T00:57:47.832Z,15.80
2022-10-14T01:00:19.702Z,15.80
2022-10-14T01:02:50.598Z,15.80
2022-10-14T01:05:21.037Z,15.80
2022-10-14T01:08:09.647Z,15.80
2022-10-14T01:10:47.068Z,15.70
2022-10-14T01:13:26.854Z,15.70
2022-10-14T01:16:12.389Z,15.70
2022-10-14T01:19:00.015Z,15.70
2022-10-14T01:21:33.429Z,15.70
2022-10-14T01:24:38.321Z,15.70
2022-10-14T01:27:50.507Z,15.70
2022-10-14T01:30:22.742Z,15.70
2022-10-14T01:33:04.991Z,15.70
2022-10-14T01:35:57.716Z,15.70
2022-10-14T01:38:31.847Z,15.70
2022-10-14T01:41:08.458Z,15.70
2022-10-14T01:43:41.218Z,15.70
2022-10-14T01:46:13.484Z,15.80
2022-10-14T01:48:47.549Z,15.70
2022-10-14T01:51:23.915Z,15.70
2022-10-14T01:53:58.695Z,15.70
2022-10-14T01:56:31.346Z,15.80
2022-10-14T01:59:02.257Z,15.80
2022-10-14T02:01:34.947Z,15.80
2022-10-14T02:04:04.130Z,15.80
2022-10-14T02:06:37.323Z,15.70
2022-10-14T02:09:16.972Z,15.70
2022-10-14T02:12:00.622Z,15.70
2022-10-14T02:14:39.748Z,15.70
2022-10-14T02:17:19.416Z,15.60
2022-10-14T02:19:54.162Z,15.70
2022-10-14T02:22:31.739Z,15.70
2022-10-14T02:25:23.364Z,15.70
2022-10-14T02:27:54.408Z,15.70
2022-10-14T02:30:23.390Z,15.70
2022-10-14T02:33:01.640Z,15.70
2022-10-14T02:35:32.561Z,15.70
2022-10-14T02:38:08.229Z,15.70
2022-10-14T02:40:41.229Z,15.70
2022-10-14T02:43:12.489Z,15.70
2022-10-14T02:45:44.089Z,15.80
2022-10-14T02:48:15.163Z,15.70
2022-10-14T02:50:44.449Z,15.70
2022-10-14T02:53:17.422Z,15.70
2022-10-14T02:55:47.947Z,15.70
2022-10-14T02:58:17.127Z,15.80
2022-10-14T03:00:46.207Z,15.70
2022-10-14T03:03:17.213Z,15.70
2022-10-14T03:05:46.253Z,15.60
2022-10-14T03:08:20.519Z,15.60
2022-10-14T03:10:50.515Z,15.60
2022-10-14T03:13:19.513Z,15.60
2022-10-14T03:15:50.461Z,15.60
2022-10-14T03:18:22.608Z,15.50
2022-10-14T03:20:55.223Z,15.50
2022-10-14T03:23:31.349Z,15.50
2022-10-14T03:26:00.649Z,15.40
2022-10-14T03:28:36.438Z,15.40
2022-10-14T03:31:23.412Z,15.40
2022-10-14T03:34:07.451Z,15.40
2022-10-14T03:36:38.404Z,15.40
2022-10-14T03:39:07.717Z,15.40
2022-10-14T03:41:43.403Z,15.40
2022-10-14T03:44:14.599Z,15.40
2022-10-14T03:46:49.775Z,15.40
2022-10-14T03:49:20.183Z,15.40
2022-10-14T03:51:50.786Z,15.50
2022-10-14T03:54:26.000Z,15.50
2022-10-14T03:56:56.157Z,15.50
2022-10-14T03:59:27.965Z,15.40
2022-10-14T04:01:58.429Z,15.40
2022-10-14T04:04:29.339Z,15.30
2022-10-14T04:06:58.432Z,15.30
2022-10-14T04:09:27.887Z,15.20
2022-10-14T04:11:58.082Z,15.30
2022-10-14T04:14:45.643Z,15.30
2022-10-14T04:17:14.665Z,15.30
2022-10-14T04:19:46.596Z,15.30
2022-10-14T04:22:19.214Z,15.30
2022-10-14T04:24:53.502Z,15.30
2022-10-14T04:27:22.765Z,15.30
2022-10-14T04:30:01.694Z,15.30
2022-10-14T04:32:47.266Z,15.40
2022-10-14T04:35:18.098Z,15.40
2022-10-14T04:37:50.819Z,15.40
2022-10-14T04:40:26.253Z,15.40
2022-10-14T04:42:57.547Z,15.40
2022-10-14T04:45:33.501Z,15.40
2022-10-14T04:48:04.816Z,15.40
2022-10-14T04:50:41.105Z,15.40
2022-10-14T04:53:31.086Z,15.40
2022-10-14T04:56:11.766Z,15.40
2022-10-14T04:58:51.390Z,15.30
2022-10-14T05:01:21.487Z,15.30
2022-10-14T05:03:51.303Z,15.30
2022-10-14T05:06:22.615Z,15.30
2022-10-14T05:08:54.310Z,15.30
2022-10-14T05:11:25.348Z,15.30
2022-10-14T05:14:01.706Z,15.30
2022-10-14T05:16:36.014Z,15.30
2022-10-14T05:19:06.260Z,15.20
2022-10-14T05:21:40.765Z,15.20
2022-10-14T05:24:20.719Z,15.20
2022-10-14T05:26:51.462Z,15.20
2022-10-14T05:29:20.578Z,15.20
2022-10-14T05:31:52.550Z,15.30
2022-10-14T05:34:43.575Z,15.30
2022-10-14T05:37:20.159Z,15.30
2022-10-14T05:39:53.766Z,15.30
2022-10-14T05:42:26.379Z,15.40
2022-10-14T05:44:58.356Z,15.30
2022-10-14T05:47:28.417Z,15.30
2022-10-14T05:50:07.078Z,15.30
2022-10-14T05:52:37.638Z,15.30
2022-10-14T05:55:15.433Z,15.30
2022-10-14T05:57:45.677Z,15.30
2022-10-14T06:00:23.305Z,15.30
2022-10-14T06:02:58.840Z,15.30
2022-10-14T06:05:29.002Z,15.30
2022-10-14T06:08:00.018Z,15.40
2022-10-14T06:10:29.503Z,15.40
2022-10-14T06:12:58.609Z,15.40
2022-10-14T06:15:28.879Z,15.50
2022-10-14T06:17:58.559Z,15.40
2022-10-14T06:20:29.438Z,15.50
2022-10-14T06:23:00.517Z,15.50
2022-10-14T06:25:30.338Z,15.50
2022-10-14T06:28:04.227Z,15.50
2022-10-14T06:30:33.466Z,15.50
2022-10-14T06:33:02.685Z,15.50
2022-10-14T06:35:31.807Z,15.50
2022-10-14T06:38:02.121Z,15.50
2022-10-14T06:40:31.239Z,15.60
2022-10-14T06:43:00.351Z,15.50
2022-10-14T06:45:29.350Z,15.60
2022-10-14T06:47:58.638Z,15.60
2022-10-14T06:50:27.792Z,15.60
2022-10-14T06:52:56.843Z,15.60
2022-10-14T06:55:27.559Z,15.60
2022-10-14T06:57:57.105Z,15.60
2022-10-14T07:00:26.090Z,15.60
2022-10-14T07:02:55.231Z,15.60
2022-10-14T07:05:24.628Z,15.70
2022-10-14T07:07:53.802Z,15.70
2022-10-14T07:10:22.840Z,15.60
2022-10-14T07:12:56.532Z,15.70
2022-10-14T07:15:25.551Z,15.70
2022-10-14T07:17:54.635Z,15.70
2022-10-14T07:20:23.646Z,15.70
2022-10-14T07:22:56.872Z,15.70
2022-10-14T07:25:26.020Z,15.70
2022-10-14T07:27:56.693Z,15.70
2022-10-14T07:30:26.047Z,15.80
2022-10-14T07:32:55.324Z,15.80
2022-10-14T07:35:25.605Z,15.80
2022-10-14T07:37:55.770Z,15.80
2022-10-14T07:40:24.957Z,15.80
2022-10-14T07:42:53.931Z,15.80
2022-10-14T07:45:24.336Z,15.80
2022-10-14T07:47:53.306Z,15.80
2022-10-14T07:50:22.411Z,15.80
2022-10-14T07:52:51.639Z,15.70
2022-10-14T07:55:20.784Z,15.70
2022-10-14T07:57:50.066Z,15.80
2022-10-14T08:00:19.403Z,15.80
2022-10-14T08:02:49.751Z,15.80
2022-10-14T08:05:36.969Z,15.90
2022-10-14T08:08:07.356Z,15.90
2022-10-14T08:10:36.670Z,16.00
2022-10-14T08:13:06.231Z,16.00
2022-10-14T08:15:38.696Z,16.10
2022-10-14T08:18:10.705Z,16.10
2022-10-14T08:20:39.717Z,16.10
2022-10-14T08:23:08.956Z,16.20
2022-10-14T08:25:39.077Z,16.20
2022-10-14T08:28:08.103Z,16.20
2022-10-14T08:30:37.601Z,16.20
2022-10-14T08:33:08.091Z,16.20
2022-10-14T08:35:37.610Z,16.20
2022-10-14T08:38:06.711Z,16.20
2022-10-14T08:40:57.866Z,16.20
2022-10-14T08:43:33.746Z,16.30
2022-10-14T08:46:12.369Z,16.30
2022-10-14T08:48:45.368Z,16.40
2022-10-14T08:51:18.659Z,16.40
2022-10-14T08:53:52.969Z,16.40
2022-10-14T08:56:22.569Z,16.40
2022-10-14T08:58:54.386Z,16.50
2022-10-14T09:01:29.161Z,16.40
2022-10-14T09:04:04.070Z,16.50
2022-10-14T09:06:36.249Z,16.50
2022-10-14T09:09:11.007Z,16.50
2022-10-14T09:11:44.459Z,16.60
2022-10-14T09:14:19.435Z,16.50
2022-10-14T09:16:53.466Z,16.60
2022-10-14T09:19:33.546Z,16.60
2022-10-14T09:22:03.354Z,16.60
2022-10-14T09:24:36.516Z,16.70
2022-10-14T09:27:10.139Z,16.80
2022-10-14T09:29:44.955Z,16.80
2022-10-14T09:32:18.072Z,16.90
2022-10-14T09:34:50.965Z,17.00
2022-10-14T09:37:29.855Z,17.00
2022-10-14T09:40:03.136Z,17.00
2022-10-14T09:42:47.145Z,17.10
2022-10-14T09:45:18.881Z,17.10
2022-10-14T09:47:54.169Z,17.10
2022-10-14T09:50:29.459Z,17.20
2022-10-14T09:53:02.950Z,17.30
2022-10-14T09:55:33.402Z,17.30
2022-10-14T09:58:07.822Z,17.40
2022-10-14T10:00:39.004Z,17.40
2022-10-14T10:03:11.519Z,17.40
2022-10-14T10:05:44.213Z,17.40
2022-10-14T10:08:19.213Z,17.50
2022-10-14T10:11:06.722Z,17.50
2022-10-14T10:13:44.447Z,17.60
2022-10-14T10:16:23.425Z,17.60
2022-10-14T10:18:55.337Z,17.70
2022-10-14T10:21:30.035Z,17.60
2022-10-14T10:24:02.224Z,17.70
2022-10-14T10:26:34.041Z,17.80
2022-10-14T10:29:05.648Z,17.80
2022-10-14T10:32:03.730Z,17.90
2022-10-14T10:35:02.907Z,17.90
2022-10-14T10:37:42.785Z,18.00
2022-10-14T10:40:33.593Z,18.00
2022-10-14T10:43:53.479Z,18.10
2022-10-14T10:46:40.328Z,18.00
2022-10-14T10:49:21.766Z,18.20
2022-10-14T10:51:56.935Z,18.20
2022-10-14T10:54:41.582Z,18.30
2022-10-14T10:57:25.103Z,18.30
2022-10-14T11:00:01.118Z,18.40
2022-10-14T11:03:09.950Z,18.40
2022-10-14T11:05:48.064Z,18.50
2022-10-14T11:09:01.042Z,18.50
2022-10-14T11:11:54.063Z,18.60
2022-10-14T11:14:41.068Z,18.60
2022-10-14T11:17:21.130Z,18.60
2022-10-14T11:19:58.930Z,18.60
2022-10-14T11:22:52.240Z,18.60
2022-10-14T11:25:33.217Z,18.50
2022-10-14T11:28:12.667Z,18.40
2022-10-14T11:30:49.372Z,18.20
2022-10-14T11:33:38.953Z,18.20
2022-10-14T11:36:22.672Z,18.10
2022-10-14T11:39:09.780Z,18.20
2022-10-14T11:41:59.475Z,18.20
2022-10-14T11:47:17.128Z,18.30
2022-10-14T11:49:55.740Z,18.30
2022-10-14T11:52:30.240Z,18.40
2022-10-14T11:55:09.765Z,18.40
2022-10-14T11:57:45.609Z,18.50
2022-10-14T12:00:36.956Z,18.60
2022-10-14T12:03:16.336Z,18.60
2022-10-14T12:05:51.051Z,18.60
2022-10-14T12:08:28.428Z,18.50
2022-10-14T12:11:06.718Z,18.50
2022-10-14T12:13:43.223Z,18.60
2022-10-14T12:16:18.324Z,18.50
2022-10-14T12:18:51.291Z,18.50
2022-10-14T12:21:31.421Z,18.60
2022-10-14T12:24:07.215Z,18.70
2022-10-14T12:26:51.770Z,18.90
2022-10-14T12:29:24.818Z,18.80
2022-10-14T12:32:20.894Z,18.90
2022-10-14T12:34:53.651Z,19.00
2022-10-14T12:37:51.193Z,19.00
2022-10-14T12:40:31.254Z,19.00
2022-10-14T12:43:05.460Z,19.00
2022-10-14T12:45:36.850Z,19.00
2022-10-14T12:48:16.154Z,19.10
2022-10-14T12:50:47.120Z,19.10
2022-10-14T12:53:25.468Z,19.10
2022-10-14T12:55:58.795Z,19.20
2022-10-14T12:58:36.030Z,19.20
2022-10-14T13:01:08.882Z,19.20
2022-10-14T13:03:45.237Z,19.30
2022-10-14T13:06:38.142Z,19.20
2022-10-14T13:09:36.035Z,19.30
2022-10-14T13:12:44.904Z,19.20
2022-10-14T13:15:53.691Z,19.20
2022-10-14T13:18:53.127Z,19.20
2022-10-14T13:21:52.720Z,19.20
2022-10-14T13:24:29.513Z,19.10
2022-10-14T13:27:20.646Z,19.20
2022-10-14T13:30:05.333Z,19.30
2022-10-14T13:32:42.975Z,19.30
2022-10-14T13:35:23.087Z,19.30
2022-10-14T13:38:00.221Z,19.40
2022-10-14T13:40:34.792Z,19.50
2022-10-14T13:43:13.566Z,19.50
2022-10-14T13:45:46.242Z,19.50
2022-10-14T13:48:18.417Z,19.50
2022-10-14T13:50:58.667Z,19.50
2022-10-14T13:53:35.643Z,19.70
2022-10-14T13:56:04.861Z,19.60
2022-10-14T13:58:34.700Z,19.60
2022-10-14T14:01:06.711Z,19.70
2022-10-14T14:03:39.068Z,19.70
2022-10-14T14:06:15.154Z,19.70
2022-10-14T14:08:50.596Z,19.70
2022-10-14T14:11:23.556Z,19.60
2022-10-14T14:14:03.210Z,19.60
2022-10-14T14:16:35.234Z,19.60
2022-10-14T14:19:09.255Z,19.60
2022-10-14T14:21:40.729Z,19.60
2022-10-14T14:24:24.957Z,19.60
2022-10-14T14:26:57.517Z,19.50
2022-10-14T14:29:30.251Z,19.40
2022-10-14T14:32:08.840Z,19.40
2022-10-14T14:34:40.229Z,19.30
2022-10-14T14:37:53.434Z,19.30
2022-10-14T14:40:19.468Z,19.20
2022-10-14T14:42:55.370Z,19.30
2022-10-14T14:45:27.093Z,19.20
2022-10-14T14:47:58.764Z,19.20
2022-10-14T14:50:32.377Z,19.30
2022-10-14T14:53:11.589Z,19.30
2022-10-14T14:55:46.278Z,19.30
2022-10-14T14:58:25.966Z,19.30
2022-10-14T15:00:55.737Z,19.40
2022-10-14T15:03:27.244Z,19.30
2022-10-14T15:06:00.146Z,19.30
2022-10-14T15:08:34.068Z,19.30
2022-10-14T15:11:03.520Z,19.40
2022-10-14T15:13:50.706Z,19.40
2022-10-14T15:16:41.501Z,19.30
2022-10-14T15:19:35.770Z,19.30
2022-10-14T15:22:31.100Z,19.30
2022-10-14T15:25:11.335Z,19.20
2022-10-14T15:27:53.519Z,19.20
2022-10-14T15:30:38.135Z,19.20
2022-10-14T15:33:16.970Z,19.10
2022-10-14T15:35:47.834Z,19.10
2022-10-14T15:38:19.210Z,19.10
2022-10-14T15:40:50.623Z,19.10
2022-10-14T15:43:25.692Z,19.10
2022-10-14T15:46:29.261Z,19.00
2022-10-14T15:49:03.093Z,19.00
2022-10-14T15:51:33.501Z,19.00
2022-10-14T15:54:02.758Z,19.00
2022-10-14T15:56:33.133Z,19.00
2022-10-14T15:59:02.127Z,19.00
2022-10-14T16:01:39.920Z,19.00
2022-10-14T16:04:18.276Z,18.80
2022-10-14T16:06:47.483Z,18.80
2022-10-14T16:09:17.244Z,18.70
2022-10-14T16:11:48.067Z,18.70
2022-10-14T16:14:17.103Z,18.70
2022-10-14T16:16:47.628Z,18.60
2022-10-14T16:19:16.771Z,18.50
2022-10-14T16:21:46.307Z,18.60
2022-10-14T16:24:20.176Z,18.60
2022-10-14T16:26:51.435Z,18.60
2022-10-14T16:29:21.223Z,18.60
2022-10-14T16:31:51.904Z,18.60
2022-10-14T16:34:23.455Z,18.50
2022-10-14T16:36:53.724Z,18.40
2022-10-14T16:39:22.758Z,18.40
2022-10-14T16:41:53.058Z,18.40
2022-10-14T16:44:27.961Z,18.30
2022-10-14T16:47:17.347Z,18.20
2022-10-14T16:49:49.146Z,18.20
2022-10-14T16:52:18.320Z,18.10
2022-10-14T16:54:48.074Z,18.20
2022-10-14T16:57:18.510Z,18.20
2022-10-14T16:59:47.842Z,18.20
2022-10-14T17:02:18.208Z,18.10
2022-10-14T17:04:52.913Z,18.20
2022-10-14T17:07:22.390Z,18.20
2022-10-14T17:09:51.494Z,18.80
2022-10-14T17:12:22.795Z,18.20
2022-10-14T17:14:52.337Z,18.20
2022-10-14T17:17:25.415Z,18.10
2022-10-14T17:19:55.338Z,18.10
2022-10-14T17:22:25.089Z,18.10
2022-10-14T17:24:54.897Z,18.10
2022-10-14T17:27:32.506Z,18.20
2022-10-14T17:30:05.775Z,18.10
2022-10-14T17:32:43.410Z,18.20
2022-10-14T17:35:20.048Z,18.10
2022-10-14T17:37:49.818Z,18.20
2022-10-14T17:40:29.179Z,18.20
2022-10-14T17:43:03.728Z,18.10
2022-10-14T17:45:33.126Z,18.10
2022-10-14T17:48:04.206Z,18.10
2022-10-14T17:50:37.898Z,18.10
2022-10-14T17:53:06.945Z,18.10
2022-10-14T17:55:40.890Z,18.10
2022-10-14T17:58:16.398Z,18.00
2022-10-14T18:00:46.215Z,17.90
2022-10-14T18:03:15.767Z,17.90
2022-10-14T18:05:48.774Z,17.90
2022-10-14T18:08:18.342Z,17.90
2022-10-14T18:10:47.247Z,17.90
2022-10-14T18:13:19.086Z,17.90
2022-10-14T18:15:48.220Z,17.90
2022-10-14T18:18:17.443Z,17.90
2022-10-14T18:20:46.496Z,17.90
2022-10-14T18:23:15.571Z,17.90
2022-10-14T18:25:51.085Z,17.90
2022-10-14T18:28:22.643Z,17.90
2022-10-14T18:30:52.477Z,17.90
2022-10-14T18:33:22.434Z,17.90
2022-10-14T18:35:57.837Z,17.90
2022-10-14T18:38:27.060Z,17.80
2022-10-14T18:41:03.593Z,17.70
2022-10-14T18:43:35.445Z,17.70
2022-10-14T18:46:09.453Z,17.60
2022-10-14T18:48:38.903Z,17.60
2022-10-14T18:51:08.080Z,17.60
2022-10-14T18:53:39.661Z,17.60
2022-10-14T18:56:15.351Z,17.60
2022-10-14T18:58:58.349Z,17.90
2022-10-14T19:01:33.237Z,17.60
2022-10-14T19:04:06.023Z,17.60
2022-10-14T19:06:36.218Z,17.40
2022-10-14T19:09:05.927Z,17.40
2022-10-14T19:11:36.195Z,17.40
2022-10-14T19:14:13.666Z,17.30
2022-10-14T19:16:50.630Z,17.40
2022-10-14T19:19:22.697Z,17.30
2022-10-14T19:21:54.501Z,17.20
2022-10-14T19:33:32.789Z,17.00
2022-10-14T19:36:07.231Z,17.00
2022-10-14T19:38:40.324Z,17.00
2022-10-14T19:41:09.954Z,16.90
2022-10-14T19:43:39.126Z,17.00
2022-10-14T19:46:10.415Z,17.00
2022-10-14T19:48:41.094Z,17.00
2022-10-14T19:51:10.958Z,16.90
2022-10-14T19:53:40.716Z,17.00
2022-10-14T19:56:12.840Z,16.80
2022-10-14T19:58:44.834Z,17.10
2022-10-14T20:01:23.401Z,16.90
2022-10-14T20:03:54.841Z,16.60
2022-10-14T20:06:31.229Z,16.70
2022-10-14T20:09:01.471Z,16.60
2022-10-14T20:11:31.246Z,16.60
2022-10-14T20:14:00.461Z,16.60
2022-10-14T20:16:30.077Z,16.50
2022-10-14T20:19:00.819Z,16.60
2022-10-14T20:21:31.069Z,16.60
2022-10-14T20:24:00.508Z,17.50
2022-10-14T20:26:31.111Z,16.60
2022-10-14T20:29:03.727Z,16.50
2022-10-14T20:31:33.261Z,16.40
2022-10-14T20:34:06.121Z,16.30
2022-10-14T20:36:39.575Z,16.20
2022-10-14T20:39:11.134Z,16.20
2022-10-14T20:41:43.572Z,16.40
2022-10-14T20:44:12.603Z,16.40
2022-10-14T20:46:44.099Z,16.40
2022-10-14T20:49:14.771Z,16.30
2022-10-14T20:51:43.953Z,16.30
2022-10-14T20:54:13.591Z,16.30
2022-10-14T20:56:43.047Z,16.30
2022-10-14T20:59:15.046Z,16.90
2022-10-14T21:01:44.743Z,16.40
2022-10-14T21:04:17.351Z,16.40
2022-10-14T21:06:49.643Z,16.40
2022-10-14T21:09:18.911Z,16.40
2022-10-14T21:11:48.651Z,16.50
2022-10-14T21:14:18.451Z,16.40
2022-10-14T21:21:49.200Z,16.40
2022-10-14T21:24:20.412Z,16.40
2022-10-14T21:26:50.958Z,16.40
2022-10-14T21:29:21.563Z,16.30
2022-10-14T21:31:51.309Z,17.00
2022-10-14T21:34:21.007Z,16.30
2022-10-14T21:36:51.479Z,16.40
2022-10-14T21:39:20.994Z,16.50
2022-10-14T21:41:50.030Z,16.50
2022-10-14T21:44:21.217Z,16.50
2022-10-14T21:46:51.131Z,16.50
2022-10-14T21:49:20.245Z,16.50
2022-10-14T21:51:50.711Z,16.50
2022-10-14T21:54:21.763Z,16.60
2022-10-14T21:56:50.987Z,16.60
2022-10-14T21:59:20.405Z,16.60
2022-10-14T22:01:49.422Z,16.50
2022-10-14T22:04:18.431Z,16.50
2022-10-14T22:06:47.955Z,16.50
2022-10-14T22:09:18.613Z,16.50
2022-10-14T22:11:47.763Z,17.10
2022-10-14T22:14:18.393Z,16.40
2022-10-14T22:16:49.472Z,16.40
2022-10-14T22:19:21.886Z,16.60
2022-10-14T22:21:51.268Z,16.60
2022-10-14T22:24:21.833Z,16.60
2022-10-14T22:26:52.634Z,16.60
2022-10-14T22:29:22.044Z,16.60
2022-10-14T22:31:51.634Z,16.50
2022-10-14T22:34:20.724Z,16.50
2022-10-14T22:36:50.553Z,16.60
2022-10-14T22:39:21.212Z,16.50
2022-10-14T22:41:52.120Z,16.50
2022-10-14T22:44:21.305Z,16.60
2022-10-14T22:46:50.362Z,16.70
2022-10-14T22:49:21.648Z,16.60
2022-10-14T22:51:53.237Z,16.60
2022-10-14T22:54:27.269Z,16.70
2022-10-14T22:56:56.270Z,16.70
2022-10-14T22:59:25.599Z,16.60
2022-10-14T23:01:54.624Z,16.60
2022-10-14T23:04:26.782Z,17.60
2022-10-14T23:06:56.143Z,16.70
2022-10-14T23:09:26.693Z,16.70
2022-10-14T23:11:55.711Z,16.70
2022-10-14T23:14:24.672Z,16.80
2022-10-14T23:16:53.715Z,17.80
2022-10-14T23:19:23.806Z,16.80
2022-10-14T23:26:31.457Z,16.80
2022-10-14T23:29:02.061Z,16.80
2022-10-14T23:31:37.012Z,16.80
2022-10-14T23:34:12.581Z,16.80
2022-10-14T23:36:42.290Z,16.80
2022-10-14T23:39:11.983Z,16.80
2022-10-14T23:41:43.306Z,16.90
2022-10-14T23:44:13.114Z,17.50
2022-10-14T23:47:03.031Z,16.90
2022-10-14T23:49:33.099Z,16.80
2022-10-14T23:52:02.389Z,17.00
2022-10-14T23:54:31.676Z,16.90
2022-10-14T23:57:02.136Z,16.90
2022-10-14T23:59:33.801Z,16.80
